Time;durP1;ratioP1;P1;durP2;ratioP2;P2;SDS_P1;SDS_P2;PMS_P1;PMS_P2;Temp;Humidity;BMP_temperature;BMP_pressure;BME280_temperature;BME280_humidity;BME280_pressure;Samples;Min_cycle;Max_cycle;Signal;HPM_P1;HPM_P2
2023/12/17 00:01:52;;;;;;;109.53;59.70;;;;;;;0.60;100.00;101637.28;5075438;28;20028;-73
2023/12/17 00:04:18;;;;;;;112.30;60.42;;;;;;;0.63;100.00;101643.22;5095520;28;20035;-73
2023/12/17 00:06:43;;;;;;;109.80;58.08;;;;;;;0.70;100.00;101649.53;5095616;28;20035;-73
2023/12/17 00:09:09;;;;;;;104.60;53.85;;;;;;;0.62;100.00;101646.16;5098877;28;20085;-73
2023/12/17 00:11:41;;;;;;;95.55;52.97;;;;;;;0.58;100.00;101656.75;5093871;28;20504;-73
2023/12/17 00:14:10;;;;;;;85.82;47.20;;;;;;;0.61;100.00;101650.84;5103178;28;20035;-73
2023/12/17 00:16:36;;;;;;;71.95;43.80;;;;;;;0.60;100.00;101654.63;5095702;28;20407;-73
2023/12/17 00:19:02;;;;;;;80.22;45.33;;;;;;;0.48;100.00;101657.22;5095873;28;20031;-73
2023/12/17 00:21:28;;;;;;;81.63;45.65;;;;;;;0.55;100.00;101668.22;5113760;28;20532;-72
2023/12/17 00:23:53;;;;;;;67.47;40.92;;;;;;;0.51;100.00;101666.97;5095536;28;20097;-73
2023/12/17 00:26:19;;;;;;;70.43;39.08;;;;;;;0.24;100.00;101669.69;5099074;28;20032;-73
2023/12/17 00:28:44;;;;;;;81.68;39.92;;;;;;;0.21;100.00;101670.13;5075294;28;20039;-71
2023/12/17 00:31:10;;;;;;;160.35;42.95;;;;;;;0.24;100.00;101672.47;5093366;28;20442;-68
2023/12/17 00:33:35;;;;;;;206.70;41.75;;;;;;;0.22;100.00;101675.44;5094083;28;20616;-68
2023/12/17 00:36:01;;;;;;;118.25;43.30;;;;;;;0.07;100.00;101664.63;5093272;28;20077;-68
2023/12/17 00:38:26;;;;;;;107.32;38.83;;;;;;;-0.07;100.00;101676.69;5093322;28;20336;-68
2023/12/17 00:40:52;;;;;;;118.13;42.15;;;;;;;-0.22;100.00;101669.47;5092988;28;20043;-68
2023/12/17 00:43:17;;;;;;;176.57;45.03;;;;;;;-0.20;100.00;101674.75;5092897;28;20027;-68
2023/12/17 00:45:43;;;;;;;75.88;38.13;;;;;;;-0.19;100.00;101674.56;5093132;28;20043;-68
2023/12/17 00:48:08;;;;;;;73.88;39.08;;;;;;;-0.29;100.00;101680.47;5093079;28;20506;-68
2023/12/17 00:50:34;;;;;;;104.40;41.35;;;;;;;-0.23;100.00;101676.03;5093036;28;20089;-68
2023/12/17 00:53:00;;;;;;;124.25;43.35;;;;;;;-0.13;100.00;101678.38;5092891;28;20491;-68
2023/12/17 00:55:25;;;;;;;110.72;43.13;;;;;;;-0.08;100.00;101689.59;5075803;28;20062;-69
2023/12/17 00:57:51;;;;;;;126.45;46.80;;;;;;;-0.09;100.00;101689.81;5091971;28;20112;-68
2023/12/17 01:00:17;;;;;;;100.25;47.22;;;;;;;-0.11;100.00;101686.44;5074965;28;20039;-69
2023/12/17 01:02:42;;;;;;;108.78;51.38;;;;;;;-0.04;100.00;101684.50;5074336;28;20059;-68
2023/12/17 01:05:08;;;;;;;116.65;50.08;;;;;;;-0.07;100.00;101693.19;5092585;28;20119;-68
2023/12/17 01:07:34;;;;;;;136.40;50.63;;;;;;;-0.26;100.00;101686.59;5092562;28;20085;-68
2023/12/17 01:09:59;;;;;;;160.57;51.42;;;;;;;-0.29;100.00;101683.22;5074520;28;20404;-68
2023/12/17 01:12:25;;;;;;;118.65;47.92;;;;;;;-0.47;100.00;101688.44;5103035;28;20027;-68
2023/12/17 01:14:50;;;;;;;132.95;49.03;;;;;;;-0.66;100.00;101673.56;5089582;28;20032;-68
2023/12/17 01:17:16;;;;;;;117.38;48.10;;;;;;;-0.66;100.00;101682.69;5113002;28;20031;-69
2023/12/17 01:19:41;;;;;;;86.47;45.25;;;;;;;-0.66;100.00;101690.06;5112930;28;20031;-68
2023/12/17 01:22:08;;;;;;;114.75;46.15;;;;;;;-0.65;100.00;101691.75;5094485;28;20503;-68
2023/12/17 01:24:33;;;;;;;134.02;44.67;;;;;;;-0.58;100.00;101692.66;5112606;28;20023;-68
2023/12/17 01:26:59;;;;;;;94.13;45.22;;;;;;;-0.70;100.00;101695.13;5112692;28;20019;-68
2023/12/17 01:29:25;;;;;;;89.93;42.97;;;;;;;-0.64;100.00;101693.44;5112314;28;20034;-68
2023/12/17 01:31:51;;;;;;;84.72;45.33;;;;;;;-0.49;100.00;101690.56;5089918;28;20028;-68
2023/12/17 01:34:19;;;;;;;83.32;43.08;;;;;;;-0.46;100.00;101693.75;5092150;28;20058;-68
2023/12/17 01:36:44;;;;;;;82.15;41.88;;;;;;;-0.41;100.00;101690.38;5092157;28;20024;-68
2023/12/17 01:39:10;;;;;;;102.40;47.70;;;;;;;-0.47;100.00;101693.94;5092124;28;20096;-72
2023/12/17 01:41:35;;;;;;;79.57;45.80;;;;;;;-0.57;100.00;101697.09;5092118;28;20017;-73
2023/12/17 01:44:01;;;;;;;87.10;50.28;;;;;;;-0.47;100.00;101693.94;5091825;28;20047;-72
2023/12/17 01:46:27;;;;;;;86.25;45.22;;;;;;;-0.44;100.00;101696.28;5073217;28;20393;-72
2023/12/17 01:48:52;;;;;;;73.43;42.13;;;;;;;-0.45;100.00;101692.69;5112211;28;20019;-73
2023/12/17 01:51:18;;;;;;;68.97;41.28;;;;;;;-0.47;100.00;101705.81;5093911;28;20051;-72
2023/12/17 01:53:44;;;;;;;81.95;42.80;;;;;;;-0.48;100.00;101698.59;5112158;28;20019;-72
2023/12/17 01:56:12;;;;;;;73.22;42.45;;;;;;;-0.48;100.00;101703.25;5112112;28;20069;-73
2023/12/17 01:58:38;;;;;;;73.28;41.25;;;;;;;-0.36;100.00;101700.72;5102115;28;20043;-72
2023/12/17 02:01:04;;;;;;;72.25;42.28;;;;;;;-0.55;100.00;101700.47;5091681;28;20031;-73
2023/12/17 02:03:29;;;;;;;73.68;42.78;;;;;;;-0.55;100.00;101708.72;5091479;28;20559;-72
2023/12/17 02:05:55;;;;;;;71.70;43.55;;;;;;;-0.49;100.00;101698.81;5091502;28;20044;-73
2023/12/17 02:08:21;;;;;;;84.18;47.42;;;;;;;-0.57;100.00;101705.34;5110082;28;20020;-72
2023/12/17 02:10:46;;;;;;;73.32;41.15;;;;;;;-0.81;100.00;101717.69;5108900;28;20038;-72
2023/12/17 02:13:14;;;;;;;56.47;33.20;;;;;;;-1.20;100.00;101725.50;5091382;28;20468;-72
2023/12/17 02:15:40;;;;;;;56.85;31.60;;;;;;;-1.43;100.00;101707.41;5107502;28;20103;-73
2023/12/17 02:18:06;;;;;;;56.67;33.50;;;;;;;-1.26;100.00;101724.41;5111418;28;20094;-72
2023/12/17 02:20:32;;;;;;;71.88;39.80;;;;;;;-1.50;100.00;101723.81;5111790;28;20046;-72
2023/12/17 02:22:58;;;;;;;67.60;38.45;;;;;;;-1.29;100.00;101719.31;5111823;28;20019;-72
2023/12/17 02:25:24;;;;;;;70.25;40.38;;;;;;;-1.13;100.00;101721.75;5093315;28;20473;-72
2023/12/17 02:27:50;;;;;;;68.13;43.00;;;;;;;-0.90;100.00;101712.38;5104740;28;20023;-72
2023/12/17 02:30:16;;;;;;;69.55;38.22;;;;;;;-0.93;100.00;101709.19;5072996;28;20412;-72
2023/12/17 02:32:41;;;;;;;66.75;40.33;;;;;;;-1.30;100.00;101715.72;5088752;28;20388;-72
2023/12/17 02:35:07;;;;;;;80.72;48.97;;;;;;;-1.23;100.00;101714.91;5074576;28;20028;-73
2023/12/17 02:37:32;;;;;;;81.53;46.53;;;;;;;-1.65;100.00;101710.19;5091295;28;20476;-72
2023/12/17 02:39:58;;;;;;;66.30;39.20;;;;;;;-1.70;100.00;101698.94;5109399;28;20399;-73
2023/12/17 02:42:23;;;;;;;69.60;37.83;;;;;;;-1.63;100.00;101712.72;5093274;28;20427;-72
2023/12/17 02:44:49;;;;;;;63.63;36.75;;;;;;;-1.80;100.00;101717.66;5092715;28;20020;-72
2023/12/17 02:47:14;;;;;;;58.65;33.80;;;;;;;-1.70;100.00;101708.03;5091346;28;20023;-73
2023/12/17 02:49:41;;;;;;;62.40;34.80;;;;;;;-1.71;100.00;101710.97;5091140;28;20458;-72
2023/12/17 02:52:07;;;;;;;58.95;34.55;;;;;;;-1.83;100.00;101710.66;5079656;28;20038;-72
2023/12/17 02:54:32;;;;;;;63.78;35.70;;;;;;;-2.07;100.00;101712.75;5106996;28;20024;-72
2023/12/17 02:56:59;;;;;;;72.22;36.65;;;;;;;-1.82;100.00;101712.34;5091240;28;20572;-72
2023/12/17 02:59:24;;;;;;;69.40;37.58;;;;;;;-2.04;100.00;101701.38;5101418;28;20115;-72
2023/12/17 03:01:51;;;;;;;75.82;39.38;;;;;;;-2.16;100.00;101717.53;5093001;28;20114;-72
2023/12/17 03:04:17;;;;;;;68.00;38.22;;;;;;;-2.07;100.00;101714.63;5090064;28;20036;-72
2023/12/17 03:06:43;;;;;;;73.05;39.80;;;;;;;-2.01;100.00;101720.19;5090945;28;20035;-72
2023/12/17 03:09:10;;;;;;;59.28;33.25;;;;;;;-2.06;100.00;101721.81;5072666;28;20020;-72
2023/12/17 03:11:36;;;;;;;63.63;32.97;;;;;;;-2.15;100.00;101721.97;5090850;28;20031;-71
2023/12/17 03:14:02;;;;;;;66.75;34.83;;;;;;;-2.04;100.00;101715.09;5081740;28;20019;-71
2023/12/17 03:16:28;;;;;;;51.63;31.48;;;;;;;-2.03;100.00;101710.47;5111172;28;20053;-71
2023/12/17 03:18:54;;;;;;;51.95;28.45;;;;;;;-2.13;100.00;101716.25;5088416;28;20024;-72
2023/12/17 03:21:20;;;;;;;53.05;29.48;;;;;;;-1.94;100.00;101712.03;5092088;28;20032;-72
2023/12/17 03:23:45;;;;;;;66.47;34.80;;;;;;;-1.87;100.00;101723.91;5094676;28;20039;-72
2023/12/17 03:26:11;;;;;;;67.63;36.85;;;;;;;-2.00;100.00;101713.66;5076334;28;20032;-72
2023/12/17 03:28:36;;;;;;;67.93;35.17;;;;;;;-1.88;100.00;101716.72;5102887;28;20027;-72
2023/12/17 03:31:02;;;;;;;70.70;37.88;;;;;;;-1.85;100.00;101723.72;5114913;28;20514;-72
2023/12/17 03:33:28;;;;;;;66.10;35.97;;;;;;;-1.82;100.00;101723.31;5087415;28;20008;-72
2023/12/17 03:35:54;;;;;;;66.28;35.95;;;;;;;-1.66;100.00;101724.94;5076186;28;20122;-72
2023/12/17 03:38:19;;;;;;;57.80;31.25;;;;;;;-1.62;100.00;101712.53;5094425;28;20028;-72
2023/12/17 03:40:45;;;;;;;58.33;32.63;;;;;;;-1.36;100.00;101729.41;5094316;28;20467;-72
2023/12/17 03:43:10;;;;;;;56.55;33.72;;;;;;;-1.21;100.00;101724.66;5076495;28;20075;-72
2023/12/17 03:45:36;;;;;;;55.15;33.25;;;;;;;-1.06;100.00;101721.81;5075883;28;20317;-72
2023/12/17 03:48:02;;;;;;;48.72;30.48;;;;;;;-1.04;100.00;101727.94;5094160;28;20024;-72
2023/12/17 03:50:28;;;;;;;53.50;30.77;;;;;;;-0.97;100.00;101725.22;5095682;28;20028;-71
2023/12/17 03:52:54;;;;;;;57.10;28.88;;;;;;;-0.94;100.00;101710.25;5094199;28;20527;-72
2023/12/17 03:55:20;;;;;;;50.22;29.52;;;;;;;-0.90;100.00;101715.13;5094076;28;20024;-72
2023/12/17 03:57:47;;;;;;;58.33;30.83;;;;;;;-0.78;100.00;101729.13;5093953;28;20031;-72
2023/12/17 04:00:13;;;;;;;51.33;30.50;;;;;;;-0.71;100.00;101724.53;5075903;28;20418;-72
2023/12/17 04:02:39;;;;;;;58.17;30.98;;;;;;;-0.74;100.00;101722.16;5093956;28;20076;-73
2023/12/17 04:05:05;;;;;;;56.28;31.42;;;;;;;-0.65;100.00;101730.25;5093736;28;20517;-73
2023/12/17 04:07:31;;;;;;;59.08;32.63;;;;;;;-0.66;100.00;101739.56;5101806;28;20034;-72
2023/12/17 04:09:57;;;;;;;136.25;60.78;;;;;;;-0.63;100.00;101734.50;5113623;28;20411;-73
2023/12/17 04:12:23;;;;;;;180.07;81.30;;;;;;;-0.64;100.00;101734.69;5095387;28;20027;-72
2023/12/17 04:14:49;;;;;;;310.20;136.30;;;;;;;-0.59;100.00;101729.44;5095402;28;20283;-72
2023/12/17 04:17:15;;;;;;;328.70;143.93;;;;;;;-0.67;100.00;101732.34;5113380;28;20101;-72
2023/12/17 04:19:40;;;;;;;278.48;125.78;;;;;;;-0.76;100.00;101737.19;5093633;28;20031;-73
2023/12/17 04:22:06;;;;;;;211.95;98.22;;;;;;;-0.66;100.00;101734.06;5088854;28;20119;-73
2023/12/17 04:24:31;;;;;;;313.60;135.02;;;;;;;-0.61;100.00;101731.53;5113051;28;20373;-73
2023/12/17 04:26:57;;;;;;;246.25;107.07;;;;;;;-0.63;100.00;101737.25;5113788;28;20032;-73
2023/12/17 04:29:23;;;;;;;190.07;88.55;;;;;;;-0.69;100.00;101748.22;5095609;28;20025;-73
2023/12/17 04:31:48;;;;;;;203.00;90.30;;;;;;;-0.61;100.00;101748.00;5091130;28;20024;-72
2023/12/17 04:34:14;;;;;;;306.65;136.25;;;;;;;-0.65;100.00;101749.50;5111732;28;20020;-73
2023/12/17 04:36:41;;;;;;;299.10;131.90;;;;;;;-0.61;100.00;101751.63;5091146;28;20443;-73
2023/12/17 04:39:07;;;;;;;372.05;169.32;;;;;;;-0.75;100.00;101764.44;5089957;28;20024;-72
2023/12/17 04:41:33;;;;;;;239.65;108.25;;;;;;;-0.82;100.00;101769.06;5094504;28;20037;-72
2023/12/17 04:43:59;;;;;;;212.85;97.60;;;;;;;-0.81;100.00;101759.78;5087449;28;20038;-73
2023/12/17 04:46:28;;;;;;;136.98;66.03;;;;;;;-0.81;100.00;101773.53;5104715;28;20024;-73
2023/12/17 04:48:54;;;;;;;106.30;51.37;;;;;;;-0.72;100.00;101764.06;5113117;28;20103;-72
2023/12/17 04:51:19;;;;;;;114.25;58.67;;;;;;;-0.80;100.00;101774.34;5112286;28;20047;-72
2023/12/17 04:53:45;;;;;;;67.38;35.15;;;;;;;-1.13;100.00;101757.47;5091456;28;20093;-73
2023/12/17 04:56:10;;;;;;;56.85;31.20;;;;;;;-1.18;100.00;101770.94;5074755;28;20028;-72
2023/12/17 04:58:36;;;;;;;55.70;29.88;;;;;;;-1.40;100.00;101772.88;5074831;28;20020;-73
2023/12/17 05:01:01;;;;;;;65.80;33.17;;;;;;;-1.68;100.00;101765.47;5092562;28;20130;-72
2023/12/17 05:03:28;;;;;;;85.05;38.78;;;;;;;-1.75;100.00;101767.28;5092273;28;20039;-73
2023/12/17 05:05:53;;;;;;;65.53;31.40;;;;;;;-1.76;100.00;101757.38;5092550;28;20489;-73
2023/12/17 05:08:19;;;;;;;74.07;34.22;;;;;;;-1.68;100.00;101762.72;5092008;28;20063;-72
2023/12/17 05:10:45;;;;;;;83.78;40.35;;;;;;;-1.80;100.00;101762.41;5092566;28;20447;-72
2023/12/17 05:13:11;;;;;;;73.97;37.88;;;;;;;-1.89;100.00;101758.94;5106401;28;20032;-73
2023/12/17 05:15:37;;;;;;;76.50;39.08;;;;;;;-1.92;100.00;101758.47;5112882;28;20034;-73
2023/12/17 05:18:02;;;;;;;59.10;34.00;;;;;;;-2.12;100.00;101751.72;5099881;28;20095;-73
2023/12/17 05:20:28;;;;;;;49.00;29.02;;;;;;;-1.98;100.00;101744.50;5094759;28;20131;-71
2023/12/17 05:22:53;;;;;;;49.70;27.63;;;;;;;-2.12;100.00;101751.72;5111611;28;20042;-72
2023/12/17 05:25:20;;;;;;;42.40;24.83;;;;;;;-2.12;100.00;101753.63;5094412;28;20519;-73
2023/12/17 05:27:46;;;;;;;56.75;27.60;;;;;;;-2.23;100.00;101752.25;5093133;28;20102;-73
2023/12/17 05:30:12;;;;;;;69.90;35.75;;;;;;;-2.19;100.00;101748.06;5094550;28;20119;-70
2023/12/17 05:32:37;;;;;;;50.00;30.67;;;;;;;-2.26;100.00;101755.38;5082333;28;20442;-69
2023/12/17 05:35:04;;;;;;;70.55;35.95;;;;;;;-2.29;100.00;101753.03;5073846;28;20058;-73
2023/12/17 05:37:29;;;;;;;65.53;37.35;;;;;;;-2.30;100.00;101757.66;5087906;28;20019;-69
2023/12/17 05:39:55;;;;;;;82.95;43.53;;;;;;;-2.29;100.00;101751.13;5104261;28;20569;-71
2023/12/17 05:42:20;;;;;;;68.15;33.97;;;;;;;-2.32;100.00;101762.47;5095069;28;20089;-70
2023/12/17 05:44:46;;;;;;;48.58;27.13;;;;;;;-2.49;100.00;101753.63;5097761;28;20443;-69
2023/12/17 05:47:11;;;;;;;51.90;27.85;;;;;;;-2.58;100.00;101763.00;5079513;28;20024;-68
2023/12/17 05:49:40;;;;;;;55.75;30.90;;;;;;;-2.59;100.00;101780.47;5092003;28;20036;-71
2023/12/17 05:52:06;;;;;;;56.47;30.88;;;;;;;-2.68;100.00;101786.03;5079697;28;20082;-70
2023/12/17 05:54:33;;;;;;;51.33;27.60;;;;;;;-2.61;100.00;101788.03;5112259;28;20058;-70
2023/12/17 05:56:59;;;;;;;84.43;44.95;;;;;;;-2.78;100.00;101798.34;5089857;28;20024;-70
2023/12/17 05:59:24;;;;;;;86.22;48.25;;;;;;;-2.88;100.00;101798.63;5073531;28;20037;-69
2023/12/17 06:01:50;;;;;;;85.22;46.83;;;;;;;-2.91;100.00;101810.81;5091209;28;20016;-70
2023/12/17 06:04:15;;;;;;;64.88;37.30;;;;;;;-2.79;100.00;101816.66;5109487;28;20033;-70
2023/12/17 06:06:41;;;;;;;81.85;39.35;;;;;;;-2.66;100.00;101812.41;5108450;28;20138;-71
2023/12/17 06:09:07;;;;;;;95.13;43.67;;;;;;;-2.56;100.00;101818.44;5108594;28;20511;-70
2023/12/17 06:11:33;;;;;;;101.40;47.17;;;;;;;-2.51;100.00;101809.66;5110721;28;20030;-69
2023/12/17 06:13:58;;;;;;;84.18;41.17;;;;;;;-2.28;100.00;101821.38;5111225;28;20020;-67
2023/12/17 06:16:24;;;;;;;94.90;50.28;;;;;;;-2.13;100.00;101812.25;5091314;28;20023;-69
2023/12/17 06:18:51;;;;;;;83.78;44.03;;;;;;;-1.84;100.00;101803.09;5078633;28;20027;-70
2023/12/17 06:21:24;;;;;;;80.25;44.30;;;;;;;-1.73;100.00;101817.34;5083953;28;20019;-70
2023/12/17 06:23:50;;;;;;;67.78;37.03;;;;;;;-1.86;100.00;101810.66;5101145;28;20478;-70
2023/12/17 06:26:20;;;;;;;63.28;35.53;;;;;;;-1.70;100.00;101817.81;5104998;28;20552;-70
2023/12/17 06:28:46;;;;;;;57.92;32.72;;;;;;;-1.72;100.00;101811.66;5083305;28;20020;-70
2023/12/17 06:31:12;;;;;;;47.83;28.10;;;;;;;-1.52;100.00;101808.25;5101384;28;20038;-69
2023/12/17 06:33:38;;;;;;;69.07;38.78;;;;;;;-1.20;100.00;101806.00;5082396;28;20024;-69
2023/12/17 06:36:05;;;;;;;87.25;42.63;;;;;;;-1.11;100.00;101803.13;5103630;28;20045;-69
2023/12/17 06:38:30;;;;;;;76.50;41.08;;;;;;;-1.16;100.00;101807.28;5081413;28;20433;-69
2023/12/17 06:40:56;;;;;;;67.85;35.00;;;;;;;-1.16;100.00;101807.28;5090268;28;20116;-74
2023/12/17 06:43:21;;;;;;;86.05;45.85;;;;;;;-1.11;100.00;101809.44;5100357;28;20154;-75
2023/12/17 06:45:47;;;;;;;63.95;31.48;;;;;;;-1.10;100.00;101816.63;5101934;28;20026;-74
2023/12/17 06:48:13;;;;;;;50.33;29.20;;;;;;;-1.12;100.00;101805.00;5085487;28;20023;-74
2023/12/17 06:50:38;;;;;;;70.88;39.60;;;;;;;-0.99;100.00;101815.25;5099211;28;20015;-75
2023/12/17 06:53:04;;;;;;;72.75;39.13;;;;;;;-0.81;100.00;101823.00;5100281;28;20038;-75
2023/12/17 06:55:29;;;;;;;97.82;54.83;;;;;;;-0.71;100.00;101823.47;5092817;28;20020;-74
2023/12/17 06:57:55;;;;;;;79.32;40.70;;;;;;;-0.66;100.00;101825.63;5113784;28;20038;-75
2023/12/17 07:00:20;;;;;;;45.72;24.92;;;;;;;-0.63;100.00;101825.22;5115554;28;20023;-74
2023/12/17 07:02:46;;;;;;;38.58;21.92;;;;;;;-0.74;100.00;101823.88;5084079;28;20039;-75
2023/12/17 07:05:12;;;;;;;48.45;26.73;;;;;;;-0.49;100.00;101831.63;5094823;28;20524;-75
2023/12/17 07:07:37;;;;;;;46.60;23.15;;;;;;;-0.39;100.00;101824.91;5105417;28;20039;-74
2023/12/17 07:10:04;;;;;;;33.17;19.30;;;;;;;-0.37;100.00;101831.06;5097175;28;20122;-75
2023/12/17 07:12:29;;;;;;;39.28;20.80;;;;;;;-0.35;100.00;101834.47;5086520;28;20024;-74
2023/12/17 07:14:55;;;;;;;39.97;22.55;;;;;;;-0.29;100.00;101840.00;5076782;28;20393;-73
2023/12/17 07:17:21;;;;;;;43.75;24.13;;;;;;;0.02;100.00;101834.19;5082984;28;20427;-74
2023/12/17 07:19:46;;;;;;;38.25;22.08;;;;;;;-0.17;100.00;101832.00;5096963;28;20059;-73
2023/12/17 07:22:12;;;;;;;39.35;24.02;;;;;;;-0.23;100.00;101838.34;5093931;28;20063;-74
2023/12/17 07:24:37;;;;;;;49.90;27.52;;;;;;;-0.22;100.00;101840.03;5084448;28;20480;-74
2023/12/17 07:27:03;;;;;;;40.97;22.27;;;;;;;-0.34;100.00;101827.91;5088927;28;20089;-73
2023/12/17 07:29:28;;;;;;;32.40;20.08;;;;;;;-0.61;100.00;101831.34;5115025;28;20035;-75
2023/12/17 07:31:54;;;;;;;35.42;21.40;;;;;;;-0.42;100.00;101834.44;5109206;28;20016;-76
2023/12/17 07:34:19;;;;;;;28.70;18.15;;;;;;;-0.15;100.00;101829.88;5094581;28;20413;-76
2023/12/17 07:36:45;;;;;;;39.85;21.10;;;;;;;-0.40;100.00;101836.97;5094147;28;20024;-76
2023/12/17 07:39:11;;;;;;;33.25;19.75;;;;;;;-0.33;100.00;101837.88;5094358;28;20039;-77
2023/12/17 07:41:36;;;;;;;41.45;22.88;;;;;;;-0.27;100.00;101827.94;5096751;28;20084;-76
2023/12/17 07:44:02;;;;;;;38.10;21.27;;;;;;;-0.29;100.00;101839.13;5083668;28;20074;-74
2023/12/17 07:46:27;;;;;;;35.83;20.25;;;;;;;-0.21;100.00;101832.59;5095023;28;20027;-74
2023/12/17 07:48:53;;;;;;;46.28;24.02;;;;;;;-0.05;100.00;101846.03;5095434;28;20081;-74
2023/12/17 07:51:18;;;;;;;40.85;22.83;;;;;;;0.07;100.00;101843.53;5075613;28;20032;-73
2023/12/17 07:53:44;;;;;;;31.88;17.33;;;;;;;0.33;100.00;101850.16;5113558;28;20031;-74
2023/12/17 07:56:10;;;;;;;48.28;24.88;;;;;;;0.41;100.00;101844.47;5096174;28;20027;-74
2023/12/17 07:58:35;;;;;;;27.27;16.73;;;;;;;0.62;100.00;101844.50;5092926;28;20403;-74
2023/12/17 08:01:01;;;;;;;28.52;15.15;;;;;;;0.67;100.00;101837.28;5106582;28;20031;-74
2023/12/17 08:03:27;;;;;;;27.20;15.90;;;;;;;0.60;100.00;101839.19;5094876;28;20397;-73
2023/12/17 08:05:52;;;;;;;24.38;14.07;;;;;;;0.71;100.00;101826.72;5106894;28;20100;-73
2023/12/17 08:08:22;;;;;;;23.40;14.20;;;;;;;0.62;100.00;101823.31;5111338;28;20072;-72
2023/12/17 08:10:47;;;;;;;34.35;15.35;;;;;;;0.92;100.00;101822.88;5112648;28;20024;-72
2023/12/17 08:13:13;;;;;;;26.15;14.95;;;;;;;0.94;100.00;101814.41;5096516;28;20039;-73
2023/12/17 08:15:38;;;;;;;25.30;15.77;;;;;;;1.09;100.00;101827.97;5092596;28;20074;-74
2023/12/17 08:18:04;;;;;;;25.38;14.55;;;;;;;1.15;100.00;101829.00;5106250;28;20027;-78
2023/12/17 08:20:29;;;;;;;26.60;15.50;;;;;;;1.26;100.00;101826.47;5094614;28;20469;-75
2023/12/17 08:22:55;;;;;;;29.75;16.85;;;;;;;1.40;100.00;101821.78;5110830;28;20024;-73
2023/12/17 08:25:21;;;;;;;27.42;15.93;;;;;;;1.41;100.00;101825.38;5090948;28;20031;-75
2023/12/17 08:27:46;;;;;;;27.35;14.85;;;;;;;1.70;100.00;101820.41;5083975;28;20027;-75
2023/12/17 08:30:12;;;;;;;23.98;14.32;;;;;;;1.83;100.00;101827.78;5102952;28;20073;-74
2023/12/17 08:32:38;;;;;;;29.63;17.85;;;;;;;1.83;100.00;101813.97;5102340;28;20036;-76
2023/12/17 08:35:04;;;;;;;31.98;19.00;;;;;;;1.77;100.00;101812.94;5112096;28;20051;-76
2023/12/17 08:37:30;;;;;;;30.60;18.65;;;;;;;1.69;100.00;101815.97;5110565;28;20110;-74
2023/12/17 08:39:56;;;;;;;30.95;19.48;;;;;;;1.92;100.00;101811.81;5100922;28;20108;-75
2023/12/17 08:42:22;;;;;;;33.60;18.13;;;;;;;1.75;100.00;101806.81;5094487;28;20059;-74
2023/12/17 08:44:49;;;;;;;26.77;15.90;;;;;;;1.69;100.00;101804.94;5100158;28;20079;-75
2023/12/17 08:47:15;;;;;;;28.10;16.80;;;;;;;1.70;100.00;101801.09;5101719;28;20023;-75
2023/12/17 08:49:41;;;;;;;31.83;17.95;;;;;;;1.39;100.00;101791.66;5101452;28;20020;-75
2023/12/17 08:52:07;;;;;;;33.28;18.58;;;;;;;1.57;100.00;101795.59;5101124;28;20039;-74
2023/12/17 08:54:32;;;;;;;27.13;17.55;;;;;;;1.55;100.00;101782.06;5084390;28;20018;-75
2023/12/17 08:56:58;;;;;;;42.80;22.42;;;;;;;1.68;100.00;101770.09;5100638;28;20108;-75
2023/12/17 08:59:23;;;;;;;55.60;27.48;;;;;;;1.51;100.00;101778.03;5111056;28;20034;-70
2023/12/17 09:01:49;;;;;;;49.20;26.38;;;;;;;1.56;100.00;101777.38;5107057;28;20040;-70
2023/12/17 09:04:17;;;;;;;45.58;25.70;;;;;;;1.81;100.00;101764.53;5054674;28;1220244;-70
2023/12/17 09:06:47;;;;;;;37.45;22.15;;;;;;;2.02;100.00;101769.97;5109051;28;20177;-71
2023/12/17 09:09:14;;;;;;;36.25;20.42;;;;;;;2.06;100.00;101760.16;5074839;28;20503;-71
2023/12/17 09:11:40;;;;;;;37.60;21.17;;;;;;;1.95;100.00;101758.94;5073895;28;20192;-71
2023/12/17 09:14:07;;;;;;;48.95;26.17;;;;;;;1.77;100.00;101745.88;5092239;28;20424;-71
2023/12/17 09:16:33;;;;;;;42.60;24.25;;;;;;;1.76;100.00;101749.72;5075863;28;20429;-71
2023/12/17 09:18:59;;;;;;;37.25;22.55;;;;;;;1.73;100.00;101764.78;5112241;28;20535;-71
2023/12/17 09:21:25;;;;;;;53.88;29.42;;;;;;;2.01;100.00;101747.00;5111528;28;20038;-67
2023/12/17 09:23:51;;;;;;;45.85;23.50;;;;;;;2.01;100.00;101746.19;5112365;28;20028;-69
2023/12/17 09:26:18;;;;;;;37.25;20.30;;;;;;;1.90;100.00;101750.47;5076425;28;20048;-70
2023/12/17 09:28:44;;;;;;;33.55;18.95;;;;;;;2.03;100.00;101753.16;5094582;28;20081;-69
2023/12/17 09:31:11;;;;;;;37.50;22.67;;;;;;;2.09;100.00;101744.00;5112176;28;20019;-68
2023/12/17 09:33:37;;;;;;;31.30;20.20;;;;;;;2.28;100.00;101741.31;5099706;28;20556;-69
2023/12/17 09:36:16;;;;;;;35.53;21.20;;;;;;;2.42;100.00;101727.41;5111057;28;20150;-69
2023/12/17 09:38:42;;;;;;;39.58;21.15;;;;;;;2.47;100.00;101735.88;5089458;28;20035;-69
2023/12/17 09:41:08;;;;;;;31.08;17.35;;;;;;;2.46;100.00;101731.41;5071121;28;20104;-71
2023/12/17 09:43:34;;;;;;;34.58;20.65;;;;;;;2.49;100.00;101730.94;5088950;28;20100;-69
2023/12/17 09:46:03;;;;;;;32.83;19.58;;;;;;;2.37;100.00;101739.13;5070895;28;20036;-67
2023/12/17 09:48:28;;;;;;;39.45;22.60;;;;;;;2.36;100.00;101724.47;5070543;28;20363;-69
2023/12/17 09:50:54;;;;;;;36.20;20.42;;;;;;;2.28;100.00;101719.19;5090365;28;20027;-70
2023/12/17 09:53:21;;;;;;;45.60;25.50;;;;;;;2.46;100.00;101720.34;5072502;28;20030;-68
2023/12/17 09:55:47;;;;;;;47.42;25.00;;;;;;;2.47;100.00;101714.59;5090623;28;20099;-69
2023/12/17 09:58:13;;;;;;;41.80;23.30;;;;;;;2.55;100.00;101719.00;5071795;28;20123;-69
2023/12/17 10:00:38;;;;;;;34.17;19.17;;;;;;;2.39;100.00;101715.72;5090308;28;20032;-69
2023/12/17 10:03:04;;;;;;;42.35;21.58;;;;;;;2.36;100.00;101721.69;5089974;28;20054;-69
2023/12/17 10:05:31;;;;;;;42.92;23.85;;;;;;;2.67;100.00;101717.19;5090354;28;20047;-70
2023/12/17 10:07:56;;;;;;;42.00;23.63;;;;;;;2.88;100.00;101726.13;5089761;28;20036;-70
2023/12/17 10:10:22;;;;;;;42.03;23.30;;;;;;;2.81;100.00;101717.06;5072760;28;20027;-70
2023/12/17 10:12:48;;;;;;;30.45;17.35;;;;;;;2.76;100.00;101722.41;5089908;28;20036;-71
2023/12/17 10:15:13;;;;;;;25.55;14.98;;;;;;;2.63;100.00;101721.47;5090076;28;20031;-70
2023/12/17 10:17:40;;;;;;;22.33;13.95;;;;;;;2.76;100.00;101714.13;5088364;28;20035;-71
2023/12/17 10:20:07;;;;;;;28.17;15.50;;;;;;;2.80;100.00;101720.91;5088672;28;20024;-69
2023/12/17 10:22:32;;;;;;;28.38;16.85;;;;;;;2.87;100.00;101718.06;5091695;28;20102;-70
2023/12/17 10:24:58;;;;;;;36.92;19.88;;;;;;;2.81;100.00;101706.84;5108864;28;20024;-69
2023/12/17 10:27:24;;;;;;;24.83;16.63;;;;;;;3.04;100.00;101723.84;5101990;28;20032;-71
2023/12/17 10:29:53;;;;;;;28.23;16.63;;;;;;;3.00;100.00;101709.63;5089420;28;20024;-70
2023/12/17 10:32:24;;;;;;;29.73;17.35;;;;;;;3.19;100.00;101713.25;5101730;28;20031;-70
2023/12/17 10:34:50;;;;;;;;;;;;;;;3.07;100.00;101710.41;5090031;28;20385;-72
2023/12/17 10:37:19;;;;;;;29.58;17.38;;;;;;;3.08;99.58;101706.59;5075260;28;19912;-74
2023/12/17 10:39:48;;;;;;;21.73;12.90;;;;;;;2.88;99.42;101704.00;5071337;28;20043;-72
2023/12/17 10:42:15;;;;;;;37.45;20.05;;;;;;;3.09;100.00;101683.38;5096607;28;20400;-73
2023/12/17 10:44:42;;;;;;;29.83;17.63;;;;;;;3.17;100.00;101685.00;5111900;28;20122;-73
2023/12/17 10:47:08;;;;;;;23.70;14.70;;;;;;;3.07;99.91;101681.91;5085683;28;20028;-70
2023/12/17 10:49:34;;;;;;;24.40;15.57;;;;;;;3.04;98.69;101677.69;5073336;28;20028;-70
2023/12/17 10:52:02;;;;;;;22.83;13.25;;;;;;;3.21;100.00;101682.63;5091010;28;20032;-76
2023/12/17 10:54:27;;;;;;;22.08;13.43;;;;;;;3.32;99.80;101683.75;5101724;28;20036;-74
2023/12/17 10:56:56;;;;;;;26.92;15.88;;;;;;;3.41;100.00;101674.06;5083014;28;20042;-73